• Join FlightAware (Why Join?)
  • Login
  • US Flag 
02:47AM EDT


 

Airport Tracker/Info


-or-


 

Live Flight TrackerFlight Track Log ✈ SWA2236 ✈ 07-Jul-2013 ✈ KOAK - KLAS

Flight Track Log - Related Links

Times and Time Zones

All times are in EDT time to prevent confusion due to time zone crossing. See the SWA2236 flight status page for this flight to view local times or setup timezone preferences in your user account.

Time Position Orientation Groundspeed Altitude Reporting Facility
EDT Latitude Longitude Course Direction KTS MPH feet Rate Location/Type
12:20PM 37.7000 -122.2167 130° Southeast 164 189 900  Level Northern Cal TRACON
12:21PM 37.6667 -122.1667 130° Southeast 206 237 3,300 2,280 Climbing Northern Cal TRACON
12:22PM 37.6000 -122.1333 158° South 263 303 5,300 3,120 Climbing Northern Cal TRACON
12:23PM 37.5500 -122.0833 142° Southeast 274 315 9,300 3,300 Climbing Northern Cal TRACON
12:25PM 37.4500 -121.9000 124° Southeast 348 400 15,300 2,760 Climbing Northern Cal TRACON
12:27PM 37.3722 -121.6083 108° East 380 437 21,700 2,580 Climbing Los Angeles Center
12:28PM 37.3350 -121.4675 108° East 403 464 24,300 2,400 Climbing Los Angeles Center
12:29PM 37.2956 -121.2978 106° East 439 505 26,700 2,040 Climbing Oakland Center
12:30PM 37.2533 -121.1450 109° East 459 528 28,600 2,040 Climbing Oakland Center
12:31PM 37.2119 -120.9872 108° East 474 545 30,900 2,160 Climbing Oakland Center
12:32PM 37.1753 -120.8308 106° East 469 540 33,000 1,020 Climbing Oakland Center
12:33PM 37.1853 -120.6678 86° East 469 540 33,000  Level Oakland Center
12:34PM 37.2003 -120.5008 84° East 474 545 33,000  Level Oakland Center
12:35PM 37.2150 -120.3375 83° East 476 548 33,000  Level Oakland Center
12:36PM 37.2275 -120.1781 84° East 466 536 33,000  Level Oakland Center
12:37PM 37.2419 -119.9881 84° East 458 527 33,000  Level Oakland Center
12:38PM 37.2561 -119.8283 84° East 460 529 33,000  Level Oakland Center
12:39PM 37.2661 -119.6800 85° East 459 528 33,000  Level Oakland Center
12:40PM 37.2794 -119.5197 84° East 462 532 33,000  Level Oakland Center
12:41PM 37.2917 -119.3606 84° East 461 531 33,000  Level Oakland Center
12:42PM 37.3031 -119.2000 85° East 461 531 33,000  Level Oakland Center
12:43PM 37.3158 -119.0389 84° East 464 534 33,000  Level Oakland Center
12:44PM 37.3283 -118.8472 85° East 461 531 33,000  Level Oakland Center
12:45PM 37.3392 -118.7028 85° East 458 527 33,000  Level Oakland Center
12:47PM 37.3517 -118.5439 84° East 457 526 33,000  Level Oakland Center
12:48PM 37.3614 -118.3831 86° East 461 531 33,000  Level Oakland Center
12:49PM 37.3739 -118.1928 85° East 458 527 33,000  Level Oakland Center
12:50PM 37.3853 -118.0342 85° East 457 526 33,000  Level Oakland Center
12:51PM 37.3950 -117.8714 86° East 465 535 33,000  Level Oakland Center
12:52PM 37.4042 -117.7106 86° East 463 533 33,000  Level Oakland Center
12:53PM 37.4147 -117.5497 85° East 464 534 33,000  Level Oakland Center
12:54PM 37.4239 -117.3867 86° East 470 541 33,000  Level Oakland Center
12:54PM 37.4025 -117.2658 103° East 462 532 33,000  Level Los Angeles Center
12:55PM 37.3064 -117.1747 143° Southeast 437 503 33,000  Level Los Angeles Center
12:56PM 37.2056 -117.0894 146° Southeast 438 504 33,000  Level Los Angeles Center
12:58PM 37.1064 -117.0033 145° Southeast 435 501 33,000  Level Los Angeles Center
12:59PM 36.9867 -116.9042 147° Southeast 431 496 33,000  Level Los Angeles Center
01:00PM 36.8883 -116.8211 146° Southeast 428 493 33,000  Level Los Angeles Center
01:01PM 36.7906 -116.7342 145° Southeast 430 495 33,000 -540 Level Los Angeles Center
01:02PM 36.7108 -116.6194 131° Southeast 436 502 31,900 -2,040 Descending Los Angeles Center
01:03PM 36.6303 -116.5033 131° Southeast 443 510 28,800 -2,760 Descending Los Angeles Center
01:04PM 36.5503 -116.3900 131° Southeast 439 505 26,200 -2,700 Descending Los Angeles Center
01:05PM 36.4611 -116.2636 131° Southeast 421 484 23,300 -2,580 Descending Los Angeles Center
01:06PM 36.3869 -116.1583 131° Southeast 405 466 20,900 -2,280 Descending Los Angeles Center
01:06PM 36.3436 -116.1008 133° Southeast 387 445 19,500 -2,520 Descending Los Angeles Center
01:07PM 36.2914 -116.0269 131° Southeast 377 434 17,600 -2,220 Descending Los Angeles Center
01:08PM 36.2458 -115.9606 130° Southeast 368 423 16,400 -1,320 Descending Los Angeles Center
01:09PM 36.1867 -115.8642 127° Southeast 334 384 15,300 -1,260 Descending Los Angeles Center
01:10PM 36.1558 -115.7658 111° Southeast 311 358 13,800 -1,140 Descending Los Angeles Center
01:11PM 36.1228 -115.6603 111° Southeast 305 351 13,000 -420 Descending Los Angeles Center
01:12PM 36.0928 -115.5678 112° Southeast 295 339 13,000  Level Los Angeles Center
01:13PM 36.0644 -115.4806 112° Southeast 273 314 13,000 -240 Level Los Angeles Center
01:14PM 36.0378 -115.3994 112° Southeast 260 299 12,600 -780 Descending Los Angeles Center
01:15PM 36.0258 -115.3142 100° East 260 299 11,400 -1,140 Descending Los Angeles Center
01:16PM 36.0203 -115.2267 94° East 258 297 10,300 -1,200 Descending Los Angeles Center
01:17PM 36.0136 -115.1408 95° East 255 293 9,000 -1,140 Descending Los Angeles Center
01:18PM 36.0072 -115.0419 95° East 246 283 8,000 -900 Descending Los Angeles Center
01:19PM 36.0039 -114.9731 93° East 216 249 7,200 -900 Descending Los Angeles Center
01:20PM 36.0011 -114.9069 93° East 201 231 6,200 -1,020 Descending Los Angeles Center
01:21PM 36.0419 -114.8889 20° North 210 242 5,200 -720 Descending Los Angeles Center
01:22PM 36.0758 -114.9431 308° West 204 235 4,800 -840 Descending Los Angeles Center
01:23PM 36.0739 -115.0200 268° West 192 221 3,600 -1,020 Descending Los Angeles Center
01:24PM 36.0739 -115.0786 270° West 167 192 2,800 -720 Descending Los Angeles Center
01:25PM 36.0733 -115.1208 269° West 167 192 2,100 -660 Descending Los Angeles Center
01:27PM 36.0667 -115.1500 270° West  Level FlightAware Approximate